sensor_id;sensor_type;location;lat;lon;timestamp;P1;durP1;ratioP1;P2;durP2;ratioP2
20142;SDS011;10509;46.476;7.134;2023-04-23T00:00:42;2.70;;;1.80;;
20142;SDS011;10509;46.476;7.134;2023-04-23T00:03:08;3.00;;;2.20;;
20142;SDS011;10509;46.476;7.134;2023-04-23T00:05:36;3.13;;;2.07;;
20142;SDS011;10509;46.476;7.134;2023-04-23T00:08:03;2.07;;;1.80;;
20142;SDS011;10509;46.476;7.134;2023-04-23T00:10:29;3.90;;;2.20;;
20142;SDS011;10509;46.476;7.134;2023-04-23T00:12:55;5.63;;;2.30;;
20142;SDS011;10509;46.476;7.134;2023-04-23T00:15:21;4.07;;;1.87;;
20142;SDS011;10509;46.476;7.134;2023-04-23T00:17:48;3.07;;;1.80;;
20142;SDS011;10509;46.476;7.134;2023-04-23T00:20:14;5.90;;;2.13;;
20142;SDS011;10509;46.476;7.134;2023-04-23T00:22:41;4.37;;;2.17;;
20142;SDS011;10509;46.476;7.134;2023-04-23T00:25:08;3.37;;;1.97;;
20142;SDS011;10509;46.476;7.134;2023-04-23T00:27:34;4.03;;;2.10;;
20142;SDS011;10509;46.476;7.134;2023-04-23T00:30:00;4.70;;;2.30;;
20142;SDS011;10509;46.476;7.134;2023-04-23T00:32:27;4.53;;;2.30;;
20142;SDS011;10509;46.476;7.134;2023-04-23T00:34:53;4.93;;;1.70;;
20142;SDS011;10509;46.476;7.134;2023-04-23T00:37:20;4.10;;;2.07;;
20142;SDS011;10509;46.476;7.134;2023-04-23T00:39:46;5.10;;;2.20;;
20142;SDS011;10509;46.476;7.134;2023-04-23T00:42:12;7.40;;;2.50;;
20142;SDS011;10509;46.476;7.134;2023-04-23T00:44:41;3.13;;;2.07;;
20142;SDS011;10509;46.476;7.134;2023-04-23T00:47:08;4.20;;;2.10;;
20142;SDS011;10509;46.476;7.134;2023-04-23T00:49:34;3.03;;;1.50;;
20142;SDS011;10509;46.476;7.134;2023-04-23T00:52:01;4.10;;;1.97;;
20142;SDS011;10509;46.476;7.134;2023-04-23T00:54:27;3.53;;;2.37;;
20142;SDS011;10509;46.476;7.134;2023-04-23T00:56:56;2.50;;;1.63;;
20142;SDS011;10509;46.476;7.134;2023-04-23T00:59:23;4.20;;;1.80;;
20142;SDS011;10509;46.476;7.134;2023-04-23T01:01:50;3.87;;;1.60;;
20142;SDS011;10509;46.476;7.134;2023-04-23T01:04:16;2.93;;;1.37;;
20142;SDS011;10509;46.476;7.134;2023-04-23T01:06:43;3.43;;;1.80;;
20142;SDS011;10509;46.476;7.134;2023-04-23T01:09:11;5.70;;;1.70;;
20142;SDS011;10509;46.476;7.134;2023-04-23T01:11:38;4.33;;;1.73;;
20142;SDS011;10509;46.476;7.134;2023-04-23T01:14:04;3.77;;;1.77;;
20142;SDS011;10509;46.476;7.134;2023-04-23T01:16:30;7.53;;;2.03;;
20142;SDS011;10509;46.476;7.134;2023-04-23T01:18:56;3.50;;;1.70;;
20142;SDS011;10509;46.476;7.134;2023-04-23T01:21:23;4.47;;;2.23;;
20142;SDS011;10509;46.476;7.134;2023-04-23T01:23:50;3.30;;;1.97;;
20142;SDS011;10509;46.476;7.134;2023-04-23T01:26:16;4.00;;;1.87;;
20142;SDS011;10509;46.476;7.134;2023-04-23T01:28:43;2.87;;;1.80;;
20142;SDS011;10509;46.476;7.134;2023-04-23T01:31:10;3.30;;;2.50;;
20142;SDS011;10509;46.476;7.134;2023-04-23T01:33:39;4.43;;;2.70;;
20142;SDS011;10509;46.476;7.134;2023-04-23T01:36:05;2.73;;;1.80;;
20142;SDS011;10509;46.476;7.134;2023-04-23T01:38:31;5.73;;;2.07;;
20142;SDS011;10509;46.476;7.134;2023-04-23T01:40:57;5.00;;;1.93;;
20142;SDS011;10509;46.476;7.134;2023-04-23T01:43:23;3.03;;;1.87;;
20142;SDS011;10509;46.476;7.134;2023-04-23T01:45:50;3.97;;;1.97;;
20142;SDS011;10509;46.476;7.134;2023-04-23T01:48:17;2.93;;;1.60;;
20142;SDS011;10509;46.476;7.134;2023-04-23T01:50:43;5.43;;;1.87;;
20142;SDS011;10509;46.476;7.134;2023-04-23T01:53:09;5.50;;;2.00;;
20142;SDS011;10509;46.476;7.134;2023-04-23T01:55:36;3.50;;;1.83;;
20142;SDS011;10509;46.476;7.134;2023-04-23T01:58:03;3.87;;;1.83;;
20142;SDS011;10509;46.476;7.134;2023-04-23T02:00:30;3.80;;;1.90;;
20142;SDS011;10509;46.476;7.134;2023-04-23T02:02:56;3.77;;;1.90;;
20142;SDS011;10509;46.476;7.134;2023-04-23T02:05:22;3.30;;;1.93;;
20142;SDS011;10509;46.476;7.134;2023-04-23T02:07:49;6.33;;;2.13;;
20142;SDS011;10509;46.476;7.134;2023-04-23T02:10:15;4.90;;;1.93;;
20142;SDS011;10509;46.476;7.134;2023-04-23T02:12:42;3.90;;;1.93;;
20142;SDS011;10509;46.476;7.134;2023-04-23T02:15:09;7.20;;;2.27;;
20142;SDS011;10509;46.476;7.134;2023-04-23T02:17:35;4.87;;;2.07;;
20142;SDS011;10509;46.476;7.134;2023-04-23T02:20:04;5.03;;;2.00;;
20142;SDS011;10509;46.476;7.134;2023-04-23T02:22:30;3.50;;;2.10;;
20142;SDS011;10509;46.476;7.134;2023-04-23T02:24:56;4.03;;;1.70;;
20142;SDS011;10509;46.476;7.134;2023-04-23T02:27:24;2.77;;;1.77;;
20142;SDS011;10509;46.476;7.134;2023-04-23T02:29:50;3.33;;;2.00;;
20142;SDS011;10509;46.476;7.134;2023-04-23T02:32:16;2.60;;;1.60;;
20142;SDS011;10509;46.476;7.134;2023-04-23T02:34:42;2.00;;;1.70;;
20142;SDS011;10509;46.476;7.134;2023-04-23T02:37:08;2.63;;;1.50;;
20142;SDS011;10509;46.476;7.134;2023-04-23T02:39:34;4.10;;;1.70;;
20142;SDS011;10509;46.476;7.134;2023-04-23T02:42:02;3.03;;;1.50;;
20142;SDS011;10509;46.476;7.134;2023-04-23T02:44:28;2.80;;;1.30;;
20142;SDS011;10509;46.476;7.134;2023-04-23T02:46:54;2.93;;;1.47;;
20142;SDS011;10509;46.476;7.134;2023-04-23T02:49:20;3.20;;;1.80;;
20142;SDS011;10509;46.476;7.134;2023-04-23T02:51:46;2.33;;;1.57;;
20142;SDS011;10509;46.476;7.134;2023-04-23T02:54:13;3.40;;;1.57;;
20142;SDS011;10509;46.476;7.134;2023-04-23T02:56:39;2.23;;;1.60;;
20142;SDS011;10509;46.476;7.134;2023-04-23T02:59:05;3.47;;;1.40;;
20142;SDS011;10509;46.476;7.134;2023-04-23T03:01:32;2.70;;;1.87;;
20142;SDS011;10509;46.476;7.134;2023-04-23T03:03:58;2.17;;;1.30;;
20142;SDS011;10509;46.476;7.134;2023-04-23T03:06:25;1.50;;;1.40;;
20142;SDS011;10509;46.476;7.134;2023-04-23T03:08:51;2.90;;;1.40;;
20142;SDS011;10509;46.476;7.134;2023-04-23T03:11:17;2.90;;;1.60;;
20142;SDS011;10509;46.476;7.134;2023-04-23T03:13:43;1.67;;;1.50;;
20142;SDS011;10509;46.476;7.134;2023-04-23T03:16:09;2.60;;;1.63;;
20142;SDS011;10509;46.476;7.134;2023-04-23T03:18:35;2.43;;;1.67;;
20142;SDS011;10509;46.476;7.134;2023-04-23T03:21:02;3.07;;;1.90;;
20142;SDS011;10509;46.476;7.134;2023-04-23T03:23:28;2.90;;;1.80;;
20142;SDS011;10509;46.476;7.134;2023-04-23T03:25:54;4.40;;;1.50;;
20142;SDS011;10509;46.476;7.134;2023-04-23T03:28:20;3.00;;;1.60;;
20142;SDS011;10509;46.476;7.134;2023-04-23T03:30:46;3.40;;;2.13;;
20142;SDS011;10509;46.476;7.134;2023-04-23T03:33:12;2.43;;;1.83;;
20142;SDS011;10509;46.476;7.134;2023-04-23T03:35:38;4.93;;;1.90;;
20142;SDS011;10509;46.476;7.134;2023-04-23T03:38:04;2.67;;;1.87;;
20142;SDS011;10509;46.476;7.134;2023-04-23T03:40:30;1.83;;;1.57;;
20142;SDS011;10509;46.476;7.134;2023-04-23T03:42:56;3.43;;;1.87;;
20142;SDS011;10509;46.476;7.134;2023-04-23T03:45:22;3.87;;;1.63;;
20142;SDS011;10509;46.476;7.134;2023-04-23T03:47:48;3.00;;;1.70;;
20142;SDS011;10509;46.476;7.134;2023-04-23T03:50:14;2.47;;;1.47;;
20142;SDS011;10509;46.476;7.134;2023-04-23T03:52:41;2.33;;;1.67;;
20142;SDS011;10509;46.476;7.134;2023-04-23T03:55:07;3.07;;;1.80;;
20142;SDS011;10509;46.476;7.134;2023-04-23T03:57:34;3.17;;;1.77;;
20142;SDS011;10509;46.476;7.134;2023-04-23T04:00:01;5.13;;;2.70;;
20142;SDS011;10509;46.476;7.134;2023-04-23T04:02:27;3.20;;;1.50;;
20142;SDS011;10509;46.476;7.134;2023-04-23T04:04:54;2.27;;;1.60;;
20142;SDS011;10509;46.476;7.134;2023-04-23T04:07:20;2.00;;;1.60;;
20142;SDS011;10509;46.476;7.134;2023-04-23T04:09:46;2.83;;;1.97;;
20142;SDS011;10509;46.476;7.134;2023-04-23T04:12:13;2.40;;;1.53;;
20142;SDS011;10509;46.476;7.134;2023-04-23T04:14:40;2.83;;;1.63;;
20142;SDS011;10509;46.476;7.134;2023-04-23T04:17:06;2.83;;;1.80;;
20142;SDS011;10509;46.476;7.134;2023-04-23T04:19:33;1.97;;;1.53;;
20142;SDS011;10509;46.476;7.134;2023-04-23T04:21:59;2.20;;;1.37;;
20142;SDS011;10509;46.476;7.134;2023-04-23T04:24:27;2.30;;;1.77;;
20142;SDS011;10509;46.476;7.134;2023-04-23T04:26:56;3.13;;;1.83;;
20142;SDS011;10509;46.476;7.134;2023-04-23T04:29:22;3.47;;;1.63;;
20142;SDS011;10509;46.476;7.134;2023-04-23T04:31:48;1.90;;;1.70;;
20142;SDS011;10509;46.476;7.134;2023-04-23T04:34:15;1.53;;;1.30;;
20142;SDS011;10509;46.476;7.134;2023-04-23T04:36:41;1.90;;;1.60;;
20142;SDS011;10509;46.476;7.134;2023-04-23T04:39:08;1.80;;;1.37;;
20142;SDS011;10509;46.476;7.134;2023-04-23T04:41:35;4.57;;;1.50;;
20142;SDS011;10509;46.476;7.134;2023-04-23T04:44:01;2.00;;;1.60;;
20142;SDS011;10509;46.476;7.134;2023-04-23T04:46:27;2.40;;;1.53;;
20142;SDS011;10509;46.476;7.134;2023-04-23T04:48:53;3.57;;;2.23;;
20142;SDS011;10509;46.476;7.134;2023-04-23T04:51:20;2.63;;;1.90;;
20142;SDS011;10509;46.476;7.134;2023-04-23T04:53:46;4.03;;;2.03;;
20142;SDS011;10509;46.476;7.134;2023-04-23T04:56:12;3.23;;;1.80;;
20142;SDS011;10509;46.476;7.134;2023-04-23T04:58:38;2.63;;;1.80;;
20142;SDS011;10509;46.476;7.134;2023-04-23T05:01:04;3.53;;;1.83;;
20142;SDS011;10509;46.476;7.134;2023-04-23T05:03:30;5.20;;;2.23;;
20142;SDS011;10509;46.476;7.134;2023-04-23T05:05:57;2.87;;;1.87;;
20142;SDS011;10509;46.476;7.134;2023-04-23T05:08:23;2.97;;;1.83;;
20142;SDS011;10509;46.476;7.134;2023-04-23T05:10:49;2.93;;;1.90;;
20142;SDS011;10509;46.476;7.134;2023-04-23T05:13:16;2.97;;;1.70;;
20142;SDS011;10509;46.476;7.134;2023-04-23T05:15:42;1.90;;;1.43;;
20142;SDS011;10509;46.476;7.134;2023-04-23T05:18:08;4.23;;;1.70;;
20142;SDS011;10509;46.476;7.134;2023-04-23T05:20:35;2.23;;;1.87;;
20142;SDS011;10509;46.476;7.134;2023-04-23T05:23:01;4.00;;;2.10;;
20142;SDS011;10509;46.476;7.134;2023-04-23T05:25:28;2.33;;;1.80;;
20142;SDS011;10509;46.476;7.134;2023-04-23T05:27:54;3.40;;;1.77;;
20142;SDS011;10509;46.476;7.134;2023-04-23T05:30:20;6.13;;;2.27;;
20142;SDS011;10509;46.476;7.134;2023-04-23T05:32:46;3.40;;;2.00;;
20142;SDS011;10509;46.476;7.134;2023-04-23T05:35:12;3.57;;;2.17;;
20142;SDS011;10509;46.476;7.134;2023-04-23T05:37:38;3.10;;;2.90;;
20142;SDS011;10509;46.476;7.134;2023-04-23T05:40:04;4.80;;;4.33;;
20142;SDS011;10509;46.476;7.134;2023-04-23T05:42:31;3.30;;;3.00;;
20142;SDS011;10509;46.476;7.134;2023-04-23T05:44:57;4.63;;;2.90;;
20142;SDS011;10509;46.476;7.134;2023-04-23T05:47:23;3.07;;;2.40;;
20142;SDS011;10509;46.476;7.134;2023-04-23T05:49:49;2.77;;;1.97;;
20142;SDS011;10509;46.476;7.134;2023-04-23T05:52:16;2.67;;;2.10;;
20142;SDS011;10509;46.476;7.134;2023-04-23T05:54:42;3.83;;;2.07;;
20142;SDS011;10509;46.476;7.134;2023-04-23T05:57:08;3.40;;;1.90;;
20142;SDS011;10509;46.476;7.134;2023-04-23T05:59:34;6.27;;;5.67;;
20142;SDS011;10509;46.476;7.134;2023-04-23T06:02:00;3.37;;;2.50;;
20142;SDS011;10509;46.476;7.134;2023-04-23T06:04:26;3.27;;;2.00;;
20142;SDS011;10509;46.476;7.134;2023-04-23T06:06:52;3.60;;;2.10;;
20142;SDS011;10509;46.476;7.134;2023-04-23T06:09:18;2.73;;;2.00;;
20142;SDS011;10509;46.476;7.134;2023-04-23T06:11:44;4.13;;;2.30;;
20142;SDS011;10509;46.476;7.134;2023-04-23T06:14:11;3.87;;;2.53;;
20142;SDS011;10509;46.476;7.134;2023-04-23T06:16:37;3.63;;;2.00;;
20142;SDS011;10509;46.476;7.134;2023-04-23T06:19:03;3.00;;;2.23;;
20142;SDS011;10509;46.476;7.134;2023-04-23T06:21:29;5.53;;;2.37;;
20142;SDS011;10509;46.476;7.134;2023-04-23T06:23:55;3.63;;;2.10;;
20142;SDS011;10509;46.476;7.134;2023-04-23T06:26:21;6.47;;;2.30;;
20142;SDS011;10509;46.476;7.134;2023-04-23T06:28:47;4.97;;;2.30;;
20142;SDS011;10509;46.476;7.134;2023-04-23T06:31:13;3.20;;;2.20;;
20142;SDS011;10509;46.476;7.134;2023-04-23T06:33:39;2.83;;;2.20;;
20142;SDS011;10509;46.476;7.134;2023-04-23T06:36:05;4.50;;;2.10;;
20142;SDS011;10509;46.476;7.134;2023-04-23T06:38:35;2.60;;;2.10;;
20142;SDS011;10509;46.476;7.134;2023-04-23T06:41:01;3.67;;;2.17;;
20142;SDS011;10509;46.476;7.134;2023-04-23T06:43:28;4.27;;;2.20;;
20142;SDS011;10509;46.476;7.134;2023-04-23T06:45:54;3.20;;;2.03;;
20142;SDS011;10509;46.476;7.134;2023-04-23T06:48:20;3.83;;;2.10;;
20142;SDS011;10509;46.476;7.134;2023-04-23T06:50:47;8.17;;;2.50;;
20142;SDS011;10509;46.476;7.134;2023-04-23T06:53:13;4.43;;;1.90;;
20142;SDS011;10509;46.476;7.134;2023-04-23T06:55:39;7.33;;;2.33;;
20142;SDS011;10509;46.476;7.134;2023-04-23T06:58:05;2.90;;;2.20;;
20142;SDS011;10509;46.476;7.134;2023-04-23T07:00:32;3.90;;;2.07;;
20142;SDS011;10509;46.476;7.134;2023-04-23T07:02:58;4.13;;;1.80;;
20142;SDS011;10509;46.476;7.134;2023-04-23T07:05:24;4.43;;;1.90;;
20142;SDS011;10509;46.476;7.134;2023-04-23T07:07:50;3.43;;;2.10;;
20142;SDS011;10509;46.476;7.134;2023-04-23T07:10:16;7.63;;;2.23;;
20142;SDS011;10509;46.476;7.134;2023-04-23T07:12:42;2.90;;;2.17;;
20142;SDS011;10509;46.476;7.134;2023-04-23T07:15:09;4.80;;;2.37;;
20142;SDS011;10509;46.476;7.134;2023-04-23T07:17:35;3.07;;;2.13;;
20142;SDS011;10509;46.476;7.134;2023-04-23T07:20:01;4.97;;;2.10;;
20142;SDS011;10509;46.476;7.134;2023-04-23T07:22:30;3.67;;;2.30;;
20142;SDS011;10509;46.476;7.134;2023-04-23T07:24:56;5.17;;;2.50;;
20142;SDS011;10509;46.476;7.134;2023-04-23T07:27:22;2.93;;;2.20;;
20142;SDS011;10509;46.476;7.134;2023-04-23T07:29:48;3.60;;;2.20;;
20142;SDS011;10509;46.476;7.134;2023-04-23T07:32:14;3.83;;;2.23;;
20142;SDS011;10509;46.476;7.134;2023-04-23T07:34:41;3.10;;;1.73;;
20142;SDS011;10509;46.476;7.134;2023-04-23T07:37:07;2.60;;;2.00;;
20142;SDS011;10509;46.476;7.134;2023-04-23T07:39:33;3.17;;;1.90;;
20142;SDS011;10509;46.476;7.134;2023-04-23T07:41:59;5.00;;;2.27;;
20142;SDS011;10509;46.476;7.134;2023-04-23T07:44:29;10.43;;;2.57;;
20142;SDS011;10509;46.476;7.134;2023-04-23T07:46:55;11.00;;;1.90;;
20142;SDS011;10509;46.476;7.134;2023-04-23T07:49:21;3.57;;;2.00;;
20142;SDS011;10509;46.476;7.134;2023-04-23T07:51:47;2.83;;;1.63;;
20142;SDS011;10509;46.476;7.134;2023-04-23T07:54:13;4.83;;;1.90;;
20142;SDS011;10509;46.476;7.134;2023-04-23T07:56:39;5.37;;;1.83;;
20142;SDS011;10509;46.476;7.134;2023-04-23T07:59:06;3.53;;;1.87;;
20142;SDS011;10509;46.476;7.134;2023-04-23T08:01:33;2.83;;;1.57;;
20142;SDS011;10509;46.476;7.134;2023-04-23T08:03:59;5.37;;;1.90;;
20142;SDS011;10509;46.476;7.134;2023-04-23T08:06:26;2.80;;;1.60;;
20142;SDS011;10509;46.476;7.134;2023-04-23T08:08:59;3.37;;;1.50;;
20142;SDS011;10509;46.476;7.134;2023-04-23T08:11:25;2.20;;;1.67;;
20142;SDS011;10509;46.476;7.134;2023-04-23T08:13:53;6.20;;;1.67;;
20142;SDS011;10509;46.476;7.134;2023-04-23T08:16:19;2.80;;;1.70;;
20142;SDS011;10509;46.476;7.134;2023-04-23T08:18:45;3.53;;;1.43;;
20142;SDS011;10509;46.476;7.134;2023-04-23T08:21:11;3.90;;;1.20;;
20142;SDS011;10509;46.476;7.134;2023-04-23T08:23:37;1.87;;;1.40;;
20142;SDS011;10509;46.476;7.134;2023-04-23T08:26:04;2.97;;;1.20;;
20142;SDS011;10509;46.476;7.134;2023-04-23T08:28:30;2.03;;;1.03;;
20142;SDS011;10509;46.476;7.134;2023-04-23T08:30:56;8.60;;;1.90;;
20142;SDS011;10509;46.476;7.134;2023-04-23T08:33:22;9.57;;;1.37;;
20142;SDS011;10509;46.476;7.134;2023-04-23T08:35:48;3.90;;;1.40;;
20142;SDS011;10509;46.476;7.134;2023-04-23T08:38:14;2.37;;;1.47;;
20142;SDS011;10509;46.476;7.134;2023-04-23T08:40:40;2.57;;;1.03;;
20142;SDS011;10509;46.476;7.134;2023-04-23T08:43:50;3.53;;;1.30;;
20142;SDS011;10509;46.476;7.134;2023-04-23T08:45:56;2.77;;;1.00;;
20142;SDS011;10509;46.476;7.134;2023-04-23T08:48:26;2.47;;;1.10;;
20142;SDS011;10509;46.476;7.134;2023-04-23T08:50:52;1.93;;;1.10;;
20142;SDS011;10509;46.476;7.134;2023-04-23T08:53:18;2.30;;;0.87;;
20142;SDS011;10509;46.476;7.134;2023-04-23T08:55:45;2.53;;;0.80;;
20142;SDS011;10509;46.476;7.134;2023-04-23T08:58:13;2.37;;;1.10;;
20142;SDS011;10509;46.476;7.134;2023-04-23T09:00:40;2.60;;;1.30;;
20142;SDS011;10509;46.476;7.134;2023-04-23T09:03:06;3.70;;;1.20;;
20142;SDS011;10509;46.476;7.134;2023-04-23T09:05:33;4.60;;;0.80;;
20142;SDS011;10509;46.476;7.134;2023-04-23T09:07:59;5.03;;;0.90;;
20142;SDS011;10509;46.476;7.134;2023-04-23T09:10:25;1.97;;;0.80;;
20142;SDS011;10509;46.476;7.134;2023-04-23T09:12:51;2.43;;;1.20;;
20142;SDS011;10509;46.476;7.134;2023-04-23T09:15:17;1.07;;;0.60;;
20142;SDS011;10509;46.476;7.134;2023-04-23T09:17:44;1.57;;;0.83;;
20142;SDS011;10509;46.476;7.134;2023-04-23T09:20:11;1.77;;;0.90;;
20142;SDS011;10509;46.476;7.134;2023-04-23T09:22:38;1.40;;;0.60;;
20142;SDS011;10509;46.476;7.134;2023-04-23T09:25:05;1.70;;;1.00;;
20142;SDS011;10509;46.476;7.134;2023-04-23T09:27:31;3.43;;;0.90;;
20142;SDS011;10509;46.476;7.134;2023-04-23T09:29:59;2.83;;;0.90;;
20142;SDS011;10509;46.476;7.134;2023-04-23T09:32:35;2.30;;;1.10;;
20142;SDS011;10509;46.476;7.134;2023-04-23T09:35:05;1.40;;;0.70;;
20142;SDS011;10509;46.476;7.134;2023-04-23T09:37:32;1.37;;;0.60;;
20142;SDS011;10509;46.476;7.134;2023-04-23T09:39:58;1.30;;;0.60;;
20142;SDS011;10509;46.476;7.134;2023-04-23T09:42:28;1.20;;;0.60;;
20142;SDS011;10509;46.476;7.134;2023-04-23T09:47:33;2.10;;;0.80;;
20142;SDS011;10509;46.476;7.134;2023-04-23T09:50:00;1.50;;;0.80;;
20142;SDS011;10509;46.476;7.134;2023-04-23T09:52:26;2.23;;;0.80;;
20142;SDS011;10509;46.476;7.134;2023-04-23T09:54:55;2.53;;;0.83;;
20142;SDS011;10509;46.476;7.134;2023-04-23T09:57:23;5.73;;;1.40;;
20142;SDS011;10509;46.476;7.134;2023-04-23T09:59:49;2.45;;;1.67;;
20142;SDS011;10509;46.476;7.134;2023-04-23T10:02:15;2.07;;;0.80;;
20142;SDS011;10509;46.476;7.134;2023-04-23T10:04:41;1.93;;;0.70;;
20142;SDS011;10509;46.476;7.134;2023-04-23T10:07:07;3.10;;;1.00;;
20142;SDS011;10509;46.476;7.134;2023-04-23T10:09:37;2.63;;;0.80;;
20142;SDS011;10509;46.476;7.134;2023-04-23T10:12:04;2.13;;;0.80;;
20142;SDS011;10509;46.476;7.134;2023-04-23T10:14:30;2.22;;;0.70;;
20142;SDS011;10509;46.476;7.134;2023-04-23T10:19:23;1.97;;;0.70;;
20142;SDS011;10509;46.476;7.134;2023-04-23T10:22:00;2.80;;;0.80;;
20142;SDS011;10509;46.476;7.134;2023-04-23T10:24:34;1.92;;;0.80;;
20142;SDS011;10509;46.476;7.134;2023-04-23T10:27:01;6.20;;;0.80;;
20142;SDS011;10509;46.476;7.134;2023-04-23T10:29:31;1.93;;;0.70;;
20142;SDS011;10509;46.476;7.134;2023-04-23T10:32:01;4.35;;;1.00;;
20142;SDS011;10509;46.476;7.134;2023-04-23T10:34:28;3.03;;;1.27;;
20142;SDS011;10509;46.476;7.134;2023-04-23T10:36:54;2.78;;;1.60;;
20142;SDS011;10509;46.476;7.134;2023-04-23T10:39:21;2.25;;;0.82;;
20142;SDS011;10509;46.476;7.134;2023-04-23T10:41:48;3.55;;;1.58;;
20142;SDS011;10509;46.476;7.134;2023-04-23T10:44:14;3.90;;;1.27;;
20142;SDS011;10509;46.476;7.134;2023-04-23T10:46:52;2.83;;;1.27;;
20142;SDS011;10509;46.476;7.134;2023-04-23T10:49:19;3.67;;;1.60;;
20142;SDS011;10509;46.476;7.134;2023-04-23T10:51:46;2.40;;;1.60;;
20142;SDS011;10509;46.476;7.134;2023-04-23T10:54:14;5.35;;;2.40;;
20142;SDS011;10509;46.476;7.134;2023-04-23T10:56:41;2.80;;;1.17;;
20142;SDS011;10509;46.476;7.134;2023-04-23T10:59:10;2.45;;;1.08;;
20142;SDS011;10509;46.476;7.134;2023-04-23T11:01:44;5.72;;;1.10;;
20142;SDS011;10509;46.476;7.134;2023-04-23T11:04:22;3.10;;;0.88;;
20142;SDS011;10509;46.476;7.134;2023-04-23T11:06:50;3.10;;;0.80;;
20142;SDS011;10509;46.476;7.134;2023-04-23T11:09:29;5.18;;;0.82;;
20142;SDS011;10509;46.476;7.134;2023-04-23T11:11:55;2.53;;;0.70;;
20142;SDS011;10509;46.476;7.134;2023-04-23T11:17:06;1.67;;;0.87;;
20142;SDS011;10509;46.476;7.134;2023-04-23T11:19:36;3.07;;;0.97;;
20142;SDS011;10509;46.476;7.134;2023-04-23T11:22:06;3.20;;;0.70;;
20142;SDS011;10509;46.476;7.134;2023-04-23T11:26:59;2.72;;;0.70;;
20142;SDS011;10509;46.476;7.134;2023-04-23T11:29:26;3.10;;;0.90;;
20142;SDS011;10509;46.476;7.134;2023-04-23T11:31:52;3.23;;;1.00;;
20142;SDS011;10509;46.476;7.134;2023-04-23T11:34:19;2.13;;;0.75;;
20142;SDS011;10509;46.476;7.134;2023-04-23T11:36:46;4.20;;;1.00;;
20142;SDS011;10509;46.476;7.134;2023-04-23T11:39:13;1.80;;;0.90;;
20142;SDS011;10509;46.476;7.134;2023-04-23T11:41:39;2.03;;;0.80;;
20142;SDS011;10509;46.476;7.134;2023-04-23T11:44:07;3.67;;;0.97;;
20142;SDS011;10509;46.476;7.134;2023-04-23T11:46:33;1.83;;;0.80;;
20142;SDS011;10509;46.476;7.134;2023-04-23T11:48:59;4.87;;;0.70;;
20142;SDS011;10509;46.476;7.134;2023-04-23T11:51:25;3.13;;;1.00;;
20142;SDS011;10509;46.476;7.134;2023-04-23T11:53:51;2.67;;;0.80;;
20142;SDS011;10509;46.476;7.134;2023-04-23T11:56:18;4.50;;;0.90;;
20142;SDS011;10509;46.476;7.134;2023-04-23T11:58:44;1.30;;;0.80;;
20142;SDS011;10509;46.476;7.134;2023-04-23T12:01:10;2.53;;;0.80;;
20142;SDS011;10509;46.476;7.134;2023-04-23T12:03:39;3.33;;;1.00;;
20142;SDS011;10509;46.476;7.134;2023-04-23T12:06:05;1.47;;;0.87;;
20142;SDS011;10509;46.476;7.134;2023-04-23T12:08:32;1.23;;;0.90;;
20142;SDS011;10509;46.476;7.134;2023-04-23T12:11:04;3.40;;;1.00;;
20142;SDS011;10509;46.476;7.134;2023-04-23T12:13:31;10.23;;;1.30;;
20142;SDS011;10509;46.476;7.134;2023-04-23T12:15:58;3.20;;;1.00;;
20142;SDS011;10509;46.476;7.134;2023-04-23T12:18:32;4.03;;;0.90;;
20142;SDS011;10509;46.476;7.134;2023-04-23T12:21:06;2.80;;;1.00;;
20142;SDS011;10509;46.476;7.134;2023-04-23T12:23:32;1.97;;;0.90;;
20142;SDS011;10509;46.476;7.134;2023-04-23T12:26:00;2.67;;;0.80;;
20142;SDS011;10509;46.476;7.134;2023-04-23T12:28:30;2.77;;;1.00;;
20142;SDS011;10509;46.476;7.134;2023-04-23T12:31:00;1.60;;;0.80;;
20142;SDS011;10509;46.476;7.134;2023-04-23T12:33:30;4.73;;;0.83;;
20142;SDS011;10509;46.476;7.134;2023-04-23T12:35:56;3.83;;;1.10;;
20142;SDS011;10509;46.476;7.134;2023-04-23T12:38:24;3.20;;;0.90;;
20142;SDS011;10509;46.476;7.134;2023-04-23T12:40:51;3.47;;;1.00;;
20142;SDS011;10509;46.476;7.134;2023-04-23T12:43:17;4.00;;;1.10;;
20142;SDS011;10509;46.476;7.134;2023-04-23T12:45:43;2.40;;;0.73;;
20142;SDS011;10509;46.476;7.134;2023-04-23T12:48:10;3.23;;;1.17;;
20142;SDS011;10509;46.476;7.134;2023-04-23T12:50:36;5.53;;;1.20;;
20142;SDS011;10509;46.476;7.134;2023-04-23T12:53:02;3.40;;;0.87;;
20142;SDS011;10509;46.476;7.134;2023-04-23T12:55:28;4.80;;;1.13;;
20142;SDS011;10509;46.476;7.134;2023-04-23T12:57:54;2.50;;;1.03;;
20142;SDS011;10509;46.476;7.134;2023-04-23T13:00:20;2.63;;;1.10;;
20142;SDS011;10509;46.476;7.134;2023-04-23T13:02:46;2.50;;;1.00;;
20142;SDS011;10509;46.476;7.134;2023-04-23T13:05:12;1.63;;;0.70;;
20142;SDS011;10509;46.476;7.134;2023-04-23T13:07:39;2.67;;;1.00;;
20142;SDS011;10509;46.476;7.134;2023-04-23T13:10:05;4.23;;;0.93;;
20142;SDS011;10509;46.476;7.134;2023-04-23T13:12:31;2.93;;;0.90;;
20142;SDS011;10509;46.476;7.134;2023-04-23T13:14:57;1.73;;;0.90;;
20142;SDS011;10509;46.476;7.134;2023-04-23T13:17:24;3.20;;;1.00;;
20142;SDS011;10509;46.476;7.134;2023-04-23T13:19:50;1.57;;;0.90;;
20142;SDS011;10509;46.476;7.134;2023-04-23T13:22:16;1.63;;;0.80;;
20142;SDS011;10509;46.476;7.134;2023-04-23T13:24:43;1.70;;;0.90;;
20142;SDS011;10509;46.476;7.134;2023-04-23T13:27:09;7.80;;;1.00;;
20142;SDS011;10509;46.476;7.134;2023-04-23T13:29:35;3.70;;;0.90;;
20142;SDS011;10509;46.476;7.134;2023-04-23T13:32:01;3.37;;;0.70;;
20142;SDS011;10509;46.476;7.134;2023-04-23T13:34:27;2.63;;;0.70;;
20142;SDS011;10509;46.476;7.134;2023-04-23T13:36:54;5.17;;;1.00;;
20142;SDS011;10509;46.476;7.134;2023-04-23T13:39:21;2.43;;;0.80;;
20142;SDS011;10509;46.476;7.134;2023-04-23T13:41:47;3.00;;;0.77;;
20142;SDS011;10509;46.476;7.134;2023-04-23T13:44:13;1.83;;;0.93;;
20142;SDS011;10509;46.476;7.134;2023-04-23T13:46:40;5.93;;;0.90;;
20142;SDS011;10509;46.476;7.134;2023-04-23T13:49:06;2.30;;;0.93;;
20142;SDS011;10509;46.476;7.134;2023-04-23T13:51:32;2.53;;;0.90;;
20142;SDS011;10509;46.476;7.134;2023-04-23T13:53:58;1.43;;;0.70;;
20142;SDS011;10509;46.476;7.134;2023-04-23T13:56:25;3.37;;;0.83;;
20142;SDS011;10509;46.476;7.134;2023-04-23T13:58:51;1.70;;;0.80;;
20142;SDS011;10509;46.476;7.134;2023-04-23T14:01:19;2.77;;;0.80;;
20142;SDS011;10509;46.476;7.134;2023-04-23T14:03:46;1.87;;;0.80;;
20142;SDS011;10509;46.476;7.134;2023-04-23T14:06:12;1.73;;;0.97;;
20142;SDS011;10509;46.476;7.134;2023-04-23T14:08:38;2.73;;;0.80;;
20142;SDS011;10509;46.476;7.134;2023-04-23T14:11:05;2.50;;;0.87;;
20142;SDS011;10509;46.476;7.134;2023-04-23T14:13:31;4.63;;;0.90;;
20142;SDS011;10509;46.476;7.134;2023-04-23T14:15:57;2.50;;;0.80;;
20142;SDS011;10509;46.476;7.134;2023-04-23T14:18:23;1.97;;;0.83;;
20142;SDS011;10509;46.476;7.134;2023-04-23T14:20:49;3.63;;;0.90;;
20142;SDS011;10509;46.476;7.134;2023-04-23T14:25:51;1.93;;;0.90;;
20142;SDS011;10509;46.476;7.134;2023-04-23T14:30:49;3.40;;;1.00;;
20142;SDS011;10509;46.476;7.134;2023-04-23T14:33:15;3.40;;;0.93;;
20142;SDS011;10509;46.476;7.134;2023-04-23T14:35:41;4.87;;;0.93;;
20142;SDS011;10509;46.476;7.134;2023-04-23T14:38:07;2.27;;;0.80;;
20142;SDS011;10509;46.476;7.134;2023-04-23T14:40:33;2.63;;;0.70;;
20142;SDS011;10509;46.476;7.134;2023-04-23T14:42:59;1.67;;;0.70;;
20142;SDS011;10509;46.476;7.134;2023-04-23T14:45:25;1.30;;;0.60;;
20142;SDS011;10509;46.476;7.134;2023-04-23T14:47:55;2.23;;;1.00;;
20142;SDS011;10509;46.476;7.134;2023-04-23T14:50:21;6.33;;;1.13;;
20142;SDS011;10509;46.476;7.134;2023-04-23T14:52:47;2.47;;;0.97;;
20142;SDS011;10509;46.476;7.134;2023-04-23T14:55:13;1.87;;;0.70;;
20142;SDS011;10509;46.476;7.134;2023-04-23T14:57:40;0.90;;;0.70;;
20142;SDS011;10509;46.476;7.134;2023-04-23T15:00:07;1.40;;;0.60;;